Weather observations for the past three days for
Jackson, Carroll Airport
Metric (Imperial)
Date Time (edt) Wind (kph) Vis. (km) Weather Sky Cond. Temperature (ºC) Relative Humidity Wind Chill (°C) Heat Index (°C) Pressure Precipitation (cm)
Air Dwpt 6 hour altimeter (cm) sea level (mb) 1 hr 3 hr 6 hr
Max. Min.
04 13:53 W 9 16.09 Fair CLR 32.8 22.2 33.3 23.3 54% 37 76.35 1016.0
04 12:53 Calm 16.09 Fair CLR 32.2 22.8 58% 37 76.4 1016.6
04 11:53 Vrbl 6 16.09 Fair CLR 31.1 23.3 63% 36 76.4 1016.8
04 10:53 Calm 16.09 Fair CLR 28.3 23.3 74% 32 76.43 1017.0
04 09:53 Vrbl 6 16.09 Fair CLR 27.2 22.8 77% 30 76.43 1016.9
04 08:53 Calm 16.09 Fair CLR 25.6 22.2 82% 27 76.43 1017.0
04 07:53 Calm 16.09 Fair CLR 23.3 22.2 26.1 22.8 94% 76.38 1016.5
04 06:53 Calm 16.09 Fair CLR 23.3 22.2 94% 76.35 1015.9
04 05:53 Calm 16.09 Fair CLR 23.3 22.2 94% 76.33 1015.7
04 04:53 Calm 16.09 Fair CLR 23.9 22.2 90% 23 76.3 1015.3
04 03:53 Calm 16.09 Fair CLR 24.4 22.2 88% 25 76.3 1015.2
04 02:53 Calm 16.09 Fair CLR 24.4 22.2 88% 25 76.3 1015.3
04 01:53 Calm 16.09 Fair CLR 25.6 22.2 30.6 25.6 82% 27 76.33 1015.7
04 00:53 Calm 16.09 Fair CLR 26.1 22.2 79% 28 76.35 1016.0
03 22:53 Calm 16.09 Fair CLR 27.8 21.7 69% 30 76.4 1016.7
03 21:53 Calm 16.09 Fair CLR 28.9 20.6 61% 31 76.38 1016.5
03 20:53 Calm 16.09 Fair CLR 29.4 20.6 59% 32 76.35 1016.2
03 19:53 Calm 16.09 Fair CLR 30.6 20.6 33.9 30 55% 33 76.3 1015.4
03 18:53 Calm 16.09 Fair CLR 32.2 21.1 52% 35 76.28 1015.1
03 17:53 Calm 16.09 Fair CLR 32.8 20.6 49% 36 76.28 1015.0
03 16:53 Calm 16.09 Fair CLR 33.3 20 46% 36 76.33 1015.5
03 15:53 Calm 16.09 Fair CLR 33.3 21.7 51% 37 76.35 1016.1
03 14:53 Vrbl 6 16.09 A Few Clouds FEW055 33.3 22.2 52% 38 76.4 1016.7
03 10:13 Calm 16.09 NULL NULL 27 23 79% 30 76.5 0.0
03 02:53 Calm 16.09 Fair CLR 25 22.2 85% 26 76.4 1016.9
03 01:53 S 6 16.09 Fair CLR 25.6 22.2 29.4 25 82% 27 76.43 1017.0
03 00:53 S 6 16.09 Fair CLR 25 22.8 88% 26 76.43 1017.1
02 23:53 Calm 16.09 Fair CLR 26.7 22.2 76% 29 76.43 1017.2
02 22:53 Calm 16.09 Fair CLR 27.2 22.8 77% 30 76.45 1017.3
02 21:53 Calm 16.09 Fair CLR 27.8 22.8 74% 31 76.45 1017.5
02 20:53 Calm 16.09 Fair CLR 28.9 22.8 70% 32 76.43 1017.0
02 19:53 Calm 16.09 Fair CLR 29.4 21.7 33.3 29.4 63% 32 76.4 1016.9
02 18:53 Calm 16.09 Fair CLR 31.1 22.2 59% 35 76.43 1017.2
02 17:53 W 6 6.44 Fair with Haze CLR 32.8 21.7 52% 36 76.43 1017.1
02 16:53 Calm 16.09 Fair CLR 32.8 21.7 52% 36 76.45 1017.2
02 15:53 Vrbl 7 16.09 A Few Clouds FEW044 32.8 21.7 52% 36 76.48 1017.7
02 14:53 Calm 16.09 Fair CLR 32.2 22.2 56% 36 76.53 1018.4
02 13:53 Calm 16.09 Mostly Cloudy SCT043 BKN060 31.1 22.2 32.8 22.2 59% 35 76.56 1018.8
02 12:53 Calm 16.09 A Few Clouds FEW060 31.7 22.8 59% 36 76.61 1019.5
02 11:53 Calm 16.09 Fair CLR 30.6 22.8 63% 35 76.66 1020.0
02 10:53 Calm 16.09 Fair CLR 27.8 22.2 72% 30 76.63 1019.8
02 09:53 Calm 16.09 Fair CLR 25.6 21.7 79% 27 76.61 1019.8
02 08:53 Calm 16.09 Fair CLR 24.4 21.1 82% 25 76.61 1019.7
02 07:53 Calm 16.09 Fair CLR 22.2 21.1 23.9 21.7 94% 76.58 1019.3
02 06:53 Calm 16.09 Fair CLR 22.2 21.1 94% 76.56 1018.8
02 05:53 S 6 16.09 Fair CLR 22.2 21.1 94% 76.53 1018.4
02 04:53 Calm 16.09 Fair CLR 22.8 21.1 90% 76.5 1018.1
02 03:53 Calm 16.09 Fair CLR 23.3 21.7 91% 76.5 1018.1
02 02:53 Calm 16.09 Fair CLR 23.3 21.7 91% 76.5 1018.1
02 01:53 Calm 16.09 Fair CLR 23.9 21.7 28.9 23.9 88% 24 76.5 1018.2
02 00:53 Calm 16.09 Fair CLR 25 22.2 85% 26 76.5 1018.0
01 23:53 Calm 16.09 Fair CLR 25.6 22.2 82% 27 76.5 1018.0
01 22:53 Calm 16.09 Fair CLR 26.1 22.8 82% 28 76.5 1018.2
01 21:53 Calm 16.09 Fair CLR 26.7 22.2 76% 29 76.48 1018.0
01 20:53 Calm 16.09 Fair CLR 27.8 21.1 67% 30 76.45 1017.6
01 19:53 Calm 16.09 Fair CLR 28.9 20 32.8 28.9 59% 31 76.45 1017.6
01 18:53 Calm 16.09 Fair CLR 30.6 20.6 55% 33 76.48 1017.9
01 17:53 Calm 16.09 Fair CLR 32.2 20 48% 34 76.48 1017.8
01 16:53 Calm 16.09 A Few Clouds FEW045 32.2 20.6 50% 35 76.5 1017.9
01 15:53 Calm 16.09 Fair CLR 31.1 20.6 54% 34 76.5 1018.3
01 14:53 Calm 16.09 Fair CLR 31.7 21.1 53% 35 76.58 1019.0
Date Time (edt) Wind (kph) Vis. (km) Weather Sky Cond. Air Dwpt Max. Min. Relative Humidity Wind Chill (°C) Heat Index (°C) altimeter (cm) sea level (mb) 1 hr 3 hr 6 hr
6 hour
Temperature (ºC) Pressure Precipitation (cm)